Time;durP1;ratioP1;P1;durP2;ratioP2;P2;SDS_P1;SDS_P2;PMS_P1;PMS_P2;Temp;Humidity;BMP_temperature;BMP_pressure;BME280_temperature;BME280_humidity;BME280_pressure;Samples;Min_cycle;Max_cycle;Signal;HPM_P1;HPM_P2
2024/01/28 00:00:34;;;;;;;29.00;14.00;;;;;;;5.79;100.00;102246.89;111546;1243;22034;-77
2024/01/28 00:03:46;;;;;;;28.60;13.40;;;;;;;5.79;100.00;102245.15;112070;1244;21965;-78
2024/01/28 00:06:26;;;;;;;29.70;12.80;;;;;;;5.78;100.00;102248.77;112196;1244;21944;-79
2024/01/28 00:09:13;;;;;;;27.70;13.40;;;;;;;5.78;100.00;102253.26;111955;1244;21949;-78
2024/01/28 00:16:06;;;;;;;29.20;12.70;;;;;;;5.73;100.00;102261.84;110823;1258;21994;-78
2024/01/28 00:19:11;;;;;;;;;;;;;;;5.73;100.00;102257.17;110695;1262;24451;-79
2024/01/28 00:22:29;;;;;;;27.00;12.70;;;;;;;5.65;100.00;102260.00;110160;1266;21976;-79
2024/01/28 00:36:49;;;;;;;24.80;12.20;;;;;;;7.24;100.00;102252.27;108270;1279;547914;-79
2024/01/28 00:40:11;;;;;;;23.60;10.40;;;;;;;7.39;100.00;102255.08;106075;1267;5396817;-79
2024/01/28 00:43:21;;;;;;;;;;;;;;;;;;;;;
2024/01/28 00:46:54;;;;;;;;;;;;;;;;;;;;;
2024/01/28 00:50:22;;;;;;;22.80;8.90;;;;;;;6.38;100.00;102257.07;110045;1267;23735;-77
2024/01/28 00:53:26;;;;;;;20.30;7.90;;;;;;;6.28;100.00;102260.27;109953;1267;23591;-77
2024/01/28 00:56:33;;;;;;;;;;;;;;;;;;;;;
2024/01/28 00:59:51;;;;;;;19.50;7.50;;;;;;;6.10;100.00;102265.77;110701;1260;23139;-79
2024/01/28 01:03:43;;;;;;;15.30;6.70;;;;;;;6.03;100.00;102273.28;110356;1260;22058;-78
2024/01/28 01:07:12;;;;;;;;;;;;;;;;;;;;;
2024/01/28 01:10:48;;;;;;;16.30;6.80;;;;;;;5.90;100.00;102270.00;109698;1269;22135;-77
2024/01/28 01:17:28;;;;;;;18.60;7.20;;;;;;;5.79;100.00;102279.19;109664;1269;21984;-78
2024/01/28 01:20:36;;;;;;;21.70;9.00;;;;;;;5.78;100.00;102284.35;109675;1270;23037;-77
2024/01/28 01:23:30;;;;;;;23.70;10.40;;;;;;;5.80;100.00;102290.95;109549;1270;22074;-78
2024/01/28 01:26:23;;;;;;;16.80;7.80;;;;;;;5.80;100.00;102294.58;109545;1269;21986;-79
2024/01/28 01:29:24;;;;;;;20.30;9.20;;;;;;;5.79;100.00;102293.35;109461;1270;21976;-78
2024/01/28 01:32:41;;;;;;;21.00;8.90;;;;;;;5.77;100.00;102297.64;109990;1270;22415;-78
2024/01/28 01:35:32;;;;;;;19.00;7.50;;;;;;;5.78;100.00;102301.48;109170;1274;22023;-78
2024/01/28 01:38:14;;;;;;;19.10;8.60;;;;;;;5.79;100.00;102292.67;109170;1274;22488;-78
2024/01/28 01:40:59;;;;;;;16.30;7.40;;;;;;;5.79;100.00;102296.82;109014;1274;23698;-78
2024/01/28 01:43:35;;;;;;;22.50;8.70;;;;;;;5.78;100.00;102296.98;109132;1274;22004;-79
2024/01/28 01:46:44;;;;;;;21.30;8.70;;;;;;;5.80;100.00;102297.16;109472;1261;23072;-77
2024/01/28 01:50:43;;;;;;;25.40;13.10;;;;;;;5.77;100.00;102291.77;110555;1261;22107;-78
2024/01/28 01:53:30;;;;;;;23.30;10.60;;;;;;;5.72;100.00;102285.31;110745;1255;22410;-78
2024/01/28 01:56:26;;;;;;;;;;;;;;;;;;;;;
2024/01/28 01:59:16;;;;;;;16.20;8.10;;;;;;;5.78;100.00;102295.60;110457;1261;22404;-79
2024/01/28 02:02:30;;;;;;;21.90;7.80;;;;;;;5.77;100.00;102293.86;110550;1261;21989;-79
2024/01/28 02:06:54;;;;;;;;;;;;;;;;;;;;;
2024/01/28 02:10:27;;;;;;;;;;;;;;;;;;;;;
2024/01/28 02:13:52;;;;;;;23.90;8.60;;;;;;;5.71;100.00;102280.30;110246;1249;21977;-79
2024/01/28 02:17:03;;;;;;;25.80;8.00;;;;;;;5.72;100.00;102280.98;110373;1266;22049;-80
2024/01/28 02:20:35;;;;;;;26.60;8.00;;;;;;;5.69;100.00;102281.81;110040;1267;21976;-78
2024/01/28 02:23:40;;;;;;;;;;;;;;;;;;;;;
2024/01/28 02:27:25;;;;;;;;;;;;;;;;;;;;;
2024/01/28 02:30:39;;;;;;;24.20;8.80;;;;;;;5.70;100.00;102283.55;110478;1262;21974;-78
2024/01/28 02:34:10;;;;;;;21.80;9.20;;;;;;;5.67;100.00;102286.13;110320;1260;23755;-80
2024/01/28 02:37:39;;;;;;;;;;;;;;;;;;;;;
2024/01/28 02:41:29;;;;;;;24.00;9.00;;;;;;;5.62;100.00;102292.26;110452;1266;21982;-77
2024/01/28 02:44:56;;;;;;;30.40;8.70;;;;;;;5.61;100.00;102295.71;109538;1270;21984;-79
2024/01/28 02:48:37;;;;;;;26.20;10.40;;;;;;;5.63;100.00;102302.98;109548;1270;21990;-79
2024/01/28 02:52:00;;;;;;;23.60;9.30;;;;;;;5.61;100.00;102307.80;109438;1270;23663;-79
2024/01/28 02:56:01;;;;;;;;;;;;;;;;;;;;;
2024/01/28 02:59:26;;;;;;;20.10;8.00;;;;;;;5.60;100.00;102303.29;108890;1277;21992;-79
2024/01/28 03:02:41;;;;;;;21.30;7.90;;;;;;;5.57;100.00;102306.70;108554;1281;23921;-78
2024/01/28 03:05:36;;;;;;;20.00;7.90;;;;;;;5.53;100.00;102311.99;108821;1276;23795;-79
2024/01/28 03:08:47;;;;;;;23.60;8.80;;;;;;;5.53;100.00;102314.42;108629;1276;21998;-79
2024/01/28 03:11:45;;;;;;;40.70;9.70;;;;;;;5.52;100.00;102314.92;109141;1271;23040;-79
2024/01/28 03:14:29;;;;;;;;;;;;;;;;;;;;;
2024/01/28 03:17:17;;;;;;;20.40;9.30;;;;;;;5.56;100.00;102314.10;109356;1271;22110;-79
2024/01/28 03:20:33;;;;;;;20.50;8.60;;;;;;;5.55;100.00;102313.41;109348;1271;23735;-77
2024/01/28 03:23:48;;;;;;;20.20;7.20;;;;;;;5.51;100.00;102317.83;109184;1273;21983;-78
2024/01/28 03:27:06;;;;;;;25.20;8.90;;;;;;;5.49;100.00;102317.30;108922;1277;23079;-77
2024/01/28 03:33:43;;;;;;;;;;;;;;;;;;;;;
2024/01/28 03:36:33;;;;;;;24.80;9.80;;;;;;;5.44;100.00;102331.73;108620;1281;22000;-80
2024/01/28 03:43:37;;;;;;;15.20;7.30;;;;;;;5.39;100.00;102334.61;108599;1285;22786;-78
2024/01/28 03:46:50;;;;;;;26.20;10.30;;;;;;;5.39;100.00;102336.67;108494;1285;21841;-79
2024/01/28 03:53:16;;;;;;;28.30;10.00;;;;;;;5.39;100.00;102342.02;108151;1285;24012;-80
2024/01/28 03:56:10;;;;;;;;;;;;;;;;;;;;;
2024/01/28 03:59:27;;;;;;;;;;;;;;;;;;;;;
2024/01/28 04:02:35;;;;;;;24.60;9.80;;;;;;;5.44;100.00;102356.95;109105;1276;22215;-78
2024/01/28 04:05:19;;;;;;;27.00;9.80;;;;;;;5.44;100.00;102364.20;109005;1276;23715;-79
2024/01/28 04:07:57;;;;;;;21.90;8.80;;;;;;;5.45;100.00;102372.67;108797;1276;22006;-79
2024/01/28 04:11:18;;;;;;;;;;;;;;;;;;;;;
2024/01/28 04:14:25;;;;;;;;;;;;;;;;;;;;;
2024/01/28 04:18:08;;;;;;;24.40;9.80;;;;;;;5.44;100.00;102368.85;109374;1272;21980;-79
2024/01/28 04:21:49;;;;;;;24.70;9.90;;;;;;;5.42;100.00;102364.68;111025;1256;21981;-79
2024/01/28 04:26:18;;;;;;;19.90;8.30;;;;;;;5.39;100.00;102370.86;111057;1256;21971;-80
2024/01/28 04:29:42;;;;;;;25.90;9.60;;;;;;;5.40;100.00;102375.35;111010;1256;23002;-78
2024/01/28 04:32:48;;;;;;;26.00;10.30;;;;;;;5.33;100.00;102364.38;110749;1257;23018;-79
2024/01/28 04:35:29;;;;;;;23.60;9.50;;;;;;;5.42;100.00;102372.63;111283;1255;21961;-79
2024/01/28 04:38:04;;;;;;;22.10;10.10;;;;;;;5.44;100.00;102373.70;110780;1261;22102;-80
2024/01/28 04:40:51;;;;;;;24.90;10.50;;;;;;;5.45;100.00;102375.09;110679;1261;22034;-80
2024/01/28 04:43:26;;;;;;;28.10;9.20;;;;;;;5.45;100.00;102375.42;110531;1261;21957;-80
2024/01/28 04:46:28;;;;;;;25.50;9.30;;;;;;;5.46;100.00;102377.52;110714;1261;21981;-81
2024/01/28 04:49:08;;;;;;;21.60;8.90;;;;;;;5.47;100.00;102372.18;110429;1261;22822;-80
2024/01/28 04:51:45;;;;;;;26.50;12.00;;;;;;;5.48;100.00;102367.90;110049;1266;23065;-81
2024/01/28 04:54:22;;;;;;;19.40;9.60;;;;;;;5.49;100.00;102363.77;110018;1266;22435;-79
2024/01/28 04:57:01;;;;;;;32.90;15.40;;;;;;;5.50;100.00;102366.89;110716;1261;22413;-79
2024/01/28 04:59:44;;;;;;;27.50;14.20;;;;;;;5.49;100.00;102370.15;110705;1261;22061;-80
2024/01/28 05:02:27;;;;;;;35.20;18.70;;;;;;;5.49;100.00;102374.63;110841;1250;22042;-79
2024/01/28 05:05:05;;;;;;;29.90;15.30;;;;;;;5.51;100.00;102377.95;110731;1261;22011;-81
2024/01/28 05:07:44;;;;;;;28.40;15.40;;;;;;;5.51;100.00;102382.09;109849;1268;23605;-79
2024/01/28 05:10:49;;;;;;;;;;;;;;;;;;;;;
2024/01/28 05:13:50;;;;;;;27.50;14.00;;;;;;;5.49;100.00;102395.52;110715;1262;23589;-80
2024/01/28 05:16:39;;;;;;;33.20;12.60;;;;;;;5.46;100.00;102395.14;110784;1262;22964;-80
2024/01/28 05:19:37;;;;;;;25.10;12.40;;;;;;;5.43;100.00;102405.97;110253;1260;22000;-81
2024/01/28 05:22:47;;;;;;;32.70;11.10;;;;;;;5.42;100.00;102410.45;109956;1267;21992;-80
2024/01/28 05:27:04;;;;;;;;;;;;;;;;;;;;;
2024/01/28 05:33:42;;;;;;;18.40;8.40;;;;;;;5.28;100.00;102422.48;109510;1272;23724;-80
2024/01/28 05:37:14;;;;;;;22.00;11.40;;;;;;;5.28;100.00;102419.70;109551;1273;22077;-80
2024/01/28 05:40:42;;;;;;;24.40;10.30;;;;;;;5.29;100.00;102418.51;109616;1273;23712;-81
2024/01/28 05:43:55;;;;;;;28.60;10.90;;;;;;;5.30;100.00;102419.21;109100;1278;21849;-81
2024/01/28 05:47:37;;;;;;;;;;;;;;;;;;;;;
2024/01/28 05:51:32;;;;;;;;;;;;;;;;;;;;;
2024/01/28 05:54:44;;;;;;;26.60;9.90;;;;;;;5.29;100.00;102430.42;109738;1272;23782;-80
2024/01/28 05:57:49;;;;;;;23.00;9.50;;;;;;;5.30;100.00;102432.17;109406;1272;21981;-79
2024/01/28 06:01:13;;;;;;;;;;;;;;;;;;;;;
2024/01/28 06:04:27;;;;;;;;;;;;;;;;;;;;;
2024/01/28 06:10:34;;;;;;;21.40;9.10;;;;;;;5.25;100.00;102441.41;111051;1255;22804;-77
2024/01/28 06:13:15;;;;;;;22.90;11.00;;;;;;;5.28;100.00;102438.88;110771;1255;21958;-78
2024/01/28 06:16:02;;;;;;;22.70;10.20;;;;;;;5.30;100.00;102437.17;110875;1255;22035;-79
2024/01/28 06:18:43;;;;;;;20.80;10.20;;;;;;;5.30;100.00;102436.83;110851;1255;21981;-80
2024/01/28 06:21:19;;;;;;;21.90;9.80;;;;;;;5.29;100.00;102434.23;110672;1261;23695;-77
2024/01/28 06:23:57;;;;;;;24.90;10.10;;;;;;;5.32;100.00;102440.48;110405;1261;22071;-79
2024/01/28 06:27:20;;;;;;;30.70;11.10;;;;;;;5.29;100.00;102439.06;110251;1264;21971;-79
2024/01/28 06:30:32;;;;;;;28.00;10.30;;;;;;;5.24;100.00;102441.56;110373;1264;21989;-79
2024/01/28 06:33:38;;;;;;;29.50;14.40;;;;;;;5.21;100.00;102441.84;110585;1256;21974;-77
2024/01/28 06:36:38;;;;;;;29.60;13.30;;;;;;;5.23;100.00;102448.62;110294;1265;23623;-77
2024/01/28 06:39:34;;;;;;;25.20;11.60;;;;;;;5.22;100.00;102451.88;109629;1265;23034;-78
2024/01/28 06:42:34;;;;;;;25.80;11.80;;;;;;;5.20;100.00;102451.49;109726;1268;21981;-77
2024/01/28 06:45:16;;;;;;;26.60;11.80;;;;;;;5.21;100.00;102451.00;109809;1260;22114;-77
2024/01/28 06:48:04;;;;;;;27.20;12.80;;;;;;;5.21;100.00;102459.63;109967;1265;23465;-78
2024/01/28 06:50:42;;;;;;;22.60;11.30;;;;;;;5.18;100.00;102460.79;110034;1265;21982;-76
2024/01/28 06:53:38;;;;;;;27.90;12.50;;;;;;;5.17;100.00;102465.77;109934;1265;23047;-79
2024/01/28 06:56:39;;;;;;;26.30;11.20;;;;;;;5.13;100.00;102468.29;110278;1263;23599;-79
2024/01/28 06:59:26;;;;;;;24.40;11.20;;;;;;;5.12;100.00;102462.73;110425;1261;22019;-77
2024/01/28 07:02:30;;;;;;;27.30;12.20;;;;;;;5.11;100.00;102472.40;110585;1261;22164;-78
2024/01/28 07:05:26;;;;;;;24.70;11.00;;;;;;;5.13;100.00;102471.05;110505;1249;23042;-78
2024/01/28 07:08:16;;;;;;;24.70;10.50;;;;;;;5.09;100.00;102478.92;110827;1255;23690;-78
2024/01/28 07:11:01;;;;;;;22.50;10.10;;;;;;;5.10;100.00;102477.73;110838;1255;21967;-79
2024/01/28 07:13:57;;;;;;;26.70;11.50;;;;;;;5.12;100.00;102477.23;111267;1255;21966;-79
2024/01/28 07:17:10;;;;;;;19.20;9.80;;;;;;;5.11;100.00;102480.32;110662;1255;21989;-79
2024/01/28 07:20:13;;;;;;;22.50;9.40;;;;;;;5.10;100.00;102479.62;110914;1255;21988;-79
2024/01/28 07:22:55;;;;;;;21.50;10.90;;;;;;;5.13;100.00;102482.09;110744;1255;21969;-77
2024/01/28 07:25:41;;;;;;;30.20;12.40;;;;;;;5.17;100.00;102485.10;110439;1261;21978;-78
2024/01/28 07:29:05;;;;;;;34.70;17.60;;;;;;;5.13;100.00;102489.52;109881;1268;21930;-79
2024/01/28 07:32:15;;;;;;;39.40;19.00;;;;;;;5.06;100.00;102477.13;109260;1267;22448;-80
2024/01/28 07:35:33;;;;;;;32.50;14.50;;;;;;;5.12;100.00;102483.80;108987;1275;23669;-77
2024/01/28 07:38:28;;;;;;;33.90;16.00;;;;;;;5.18;100.00;102481.14;108966;1274;22004;-78
2024/01/28 07:41:28;;;;;;;23.90;13.20;;;;;;;5.19;100.00;102482.90;109061;1275;22004;-78
2024/01/28 07:44:48;;;;;;;;;;;;;;;;;;;;;
2024/01/28 07:47:37;;;;;;;27.50;14.20;;;;;;;5.19;100.00;102487.73;110092;1261;21976;-77
2024/01/28 07:50:36;;;;;;;43.60;25.50;;;;;;;5.24;100.00;102491.63;110478;1259;22139;-77
2024/01/28 07:53:21;;;;;;;36.50;17.50;;;;;;;5.31;100.00;102493.83;110688;1259;21974;-76
2024/01/28 07:56:14;;;;;;;35.50;15.90;;;;;;;5.40;100.00;102501.06;110083;1263;22599;-80
2024/01/28 07:59:03;;;;;;;30.60;15.50;;;;;;;5.42;100.00;102499.20;110274;1261;23775;-76
2024/01/28 08:01:39;;;;;;;29.50;14.20;;;;;;;5.50;100.00;102499.85;109938;1265;21987;-76
2024/01/28 08:04:37;;;;;;;29.40;14.00;;;;;;;5.54;100.00;102499.92;110101;1265;23049;-77
2024/01/28 08:07:15;;;;;;;25.80;13.20;;;;;;;5.58;100.00;102497.23;109958;1265;23762;-75
2024/01/28 08:09:47;;;;;;;25.90;13.90;;;;;;;5.62;100.00;102495.40;110195;1265;23849;-75
2024/01/28 08:12:29;;;;;;;27.60;15.10;;;;;;;5.64;100.00;102494.74;110188;1265;22175;-76
2024/01/28 08:15:20;;;;;;;26.90;14.60;;;;;;;5.66;100.00;102498.91;110243;1262;23972;-76
2024/01/28 08:18:21;;;;;;;33.20;14.20;;;;;;;5.66;100.00;102505.84;110160;1262;23839;-76
2024/01/28 08:21:09;;;;;;;28.80;13.80;;;;;;;5.69;100.00;102507.42;110948;1255;22008;-76
2024/01/28 08:23:52;;;;;;;29.40;14.90;;;;;;;5.74;100.00;102508.54;110756;1255;21977;-74
2024/01/28 08:27:02;;;;;;;28.90;14.10;;;;;;;5.75;100.00;102508.05;110944;1255;21982;-76
2024/01/28 08:29:38;;;;;;;29.90;14.20;;;;;;;5.75;100.00;102514.45;110879;1255;22178;-75
2024/01/28 08:32:35;;;;;;;32.70;15.80;;;;;;;5.79;100.00;102512.95;110813;1255;22561;-77
2024/01/28 08:35:26;;;;;;;28.80;16.70;;;;;;;5.80;100.00;102513.14;110441;1262;21985;-76
2024/01/28 08:38:32;;;;;;;29.00;14.70;;;;;;;5.84;100.00;102510.27;110528;1261;22061;-77
2024/01/28 08:41:22;;;;;;;31.00;17.30;;;;;;;5.87;100.00;102511.72;110429;1259;23673;-77
2024/01/28 08:44:18;;;;;;;29.40;13.10;;;;;;;5.90;100.00;102508.81;110190;1263;22819;-78
2024/01/28 08:47:38;;;;;;;65.70;49.30;;;;;;;5.88;100.00;102511.20;109898;1267;21982;-76
2024/01/28 08:50:53;;;;;;;28.80;15.50;;;;;;;5.90;100.00;102520.02;109650;1270;23030;-76
2024/01/28 08:53:55;;;;;;;32.60;15.70;;;;;;;5.95;100.00;102526.03;109270;1271;22239;-76
2024/01/28 08:56:47;;;;;;;32.50;15.20;;;;;;;6.07;100.00;102528.98;109315;1271;22221;-77
2024/01/28 08:59:40;;;;;;;26.30;14.70;;;;;;;6.24;100.00;102537.54;109253;1271;23034;-76
2024/01/28 09:02:36;;;;;;;32.50;16.60;;;;;;;6.35;100.00;102539.45;109294;1271;21977;-77
2024/01/28 09:05:41;;;;;;;25.90;15.90;;;;;;;6.43;100.00;102540.26;109628;1266;21980;-76
2024/01/28 09:08:31;;;;;;;27.10;15.00;;;;;;;6.42;100.00;102540.42;109538;1266;22015;-76
2024/01/28 09:14:28;;;;;;;33.90;16.10;;;;;;;6.41;100.00;102538.14;110284;1262;21961;-76
2024/01/28 09:17:47;;;;;;;31.80;17.30;;;;;;;6.44;100.00;102537.15;109744;1266;23764;-76
2024/01/28 09:21:41;;;;;;;26.20;12.50;;;;;;;6.49;100.00;102535.14;110056;1266;21976;-76
2024/01/28 09:25:47;;;;;;;;;;;;;;;;;;;;;
2024/01/28 09:33:31;;;;;;;;;;;;;;;;;;;;;
2024/01/28 09:36:39;;;;;;;28.80;13.90;;;;;;;6.40;100.00;102564.25;108031;1291;23188;-77
2024/01/28 09:39:20;;;;;;;27.60;16.10;;;;;;;6.44;100.00;102564.14;107989;1290;22079;-75
2024/01/28 09:42:49;;;;;;;;;;;;;;;;;;;;;
2024/01/28 09:46:30;;;;;;;36.50;18.40;;;;;;;6.42;100.00;102571.02;107873;1290;22184;-78
2024/01/28 09:49:24;;;;;;;28.00;19.60;;;;;;;6.35;100.00;102574.73;107553;1296;22091;-75
2024/01/28 09:51:54;;;;;;;34.60;22.10;;;;;;;6.34;100.00;102574.88;107451;1296;22019;-76
2024/01/28 09:54:56;;;;;;;;;;;;;;;;;;;;;
2024/01/28 09:57:48;;;;;;;30.60;19.90;;;;;;;6.34;100.00;102580.08;107759;1291;22008;-77
2024/01/28 10:00:22;;;;;;;29.50;18.10;;;;;;;6.37;100.00;102578.91;107986;1286;22010;-76
2024/01/28 10:03:23;;;;;;;;;;;;;;;;;;;;;
2024/01/28 10:07:30;;;;;;;35.00;18.10;;;;;;;6.42;100.00;102577.94;108248;1286;23797;-76
2024/01/28 10:10:46;;;;;;;53.10;34.90;;;;;;;6.48;100.00;102580.80;108241;1282;22307;-79
2024/01/28 10:13:58;;;;;;;;;;;;;;;;;;;;;
2024/01/28 10:17:46;;;;;;;25.80;16.40;;;;;;;6.56;100.00;102563.11;108290;1285;22009;-78
2024/01/28 10:31:21;;;;;;;;;;;;;;;;;;;;;
2024/01/28 10:34:27;;;;;;;29.60;18.20;;;;;;;8.43;100.00;102555.30;105451;1267;5462140;-77
2024/01/28 10:37:35;;;;;;;26.10;16.60;;;;;;;8.00;100.00;102553.43;109335;1272;21979;-78
2024/01/28 10:40:37;;;;;;;23.90;13.90;;;;;;;7.81;100.00;102552.23;109167;1273;23725;-76
2024/01/28 10:43:37;;;;;;;28.10;12.90;;;;;;;7.62;100.00;102548.42;109256;1273;22057;-77
2024/01/28 10:46:46;;;;;;;22.90;13.00;;;;;;;7.43;100.00;102549.96;109227;1274;21989;-77
2024/01/28 10:49:44;;;;;;;23.20;14.10;;;;;;;7.34;100.00;102556.61;108552;1279;22103;-77
2024/01/28 10:52:27;;;;;;;26.30;15.90;;;;;;;7.27;100.00;102557.58;108837;1279;23080;-77
2024/01/28 10:55:06;;;;;;;25.20;16.00;;;;;;;7.27;100.00;102562.77;108663;1278;23254;-77
2024/01/28 10:58:03;;;;;;;21.10;12.00;;;;;;;7.19;100.00;102562.70;108663;1278;23052;-78
2024/01/28 11:00:42;;;;;;;17.30;11.40;;;;;;;7.14;100.00;102556.76;108377;1285;22015;-77
2024/01/28 11:03:28;;;;;;;24.30;10.90;;;;;;;7.10;100.00;102550.30;108816;1278;22004;-81
2024/01/28 11:06:21;;;;;;;13.60;10.00;;;;;;;7.06;100.00;102549.22;109071;1279;22087;-80
2024/01/28 11:08:57;;;;;;;20.00;10.50;;;;;;;7.05;100.00;102547.30;109489;1274;22876;-76
2024/01/28 11:11:30;;;;;;;20.70;10.80;;;;;;;7.07;100.00;102542.64;109486;1270;23786;-79
2024/01/28 11:14:21;;;;;;;13.90;8.50;;;;;;;7.09;100.00;102541.27;109722;1270;23840;-79
2024/01/28 11:17:00;;;;;;;16.10;7.50;;;;;;;7.05;100.00;102548.67;109474;1270;23837;-77
2024/01/28 11:19:52;;;;;;;16.40;8.10;;;;;;;7.03;100.00;102550.04;110735;1257;22833;-78
2024/01/28 11:22:53;;;;;;;16.90;7.10;;;;;;;6.98;100.00;102547.38;111104;1257;21996;-77
2024/01/28 11:25:49;;;;;;;20.50;11.30;;;;;;;6.88;100.00;102550.72;110744;1257;21969;-77
2024/01/28 11:28:47;;;;;;;16.20;8.30;;;;;;;6.87;100.00;102546.20;110856;1257;21971;-76
2024/01/28 11:32:05;;;;;;;20.60;10.20;;;;;;;6.90;100.00;102541.23;110541;1262;23583;-77
2024/01/28 11:35:19;;;;;;;17.30;10.20;;;;;;;7.01;100.00;102542.23;110300;1262;23758;-81
2024/01/28 11:38:14;;;;;;;19.80;7.80;;;;;;;7.16;100.00;102539.46;109881;1269;21972;-77
2024/01/28 11:41:09;;;;;;;15.80;7.10;;;;;;;7.19;100.00;102536.53;109633;1269;24808;-76
2024/01/28 11:43:50;;;;;;;15.40;7.30;;;;;;;7.20;100.00;102532.56;109574;1269;23723;-77
2024/01/28 11:46:26;;;;;;;21.60;10.50;;;;;;;7.19;100.00;102526.33;109868;1269;22581;-80
2024/01/28 11:49:11;;;;;;;13.10;9.00;;;;;;;7.19;100.00;102516.29;109809;1263;23720;-77
2024/01/28 11:52:07;;;;;;;16.50;11.50;;;;;;;7.20;100.00;102514.75;110628;1263;21972;-79
2024/01/28 11:54:54;;;;;;;17.40;10.10;;;;;;;7.33;100.00;102529.77;109609;1270;23741;-78
2024/01/28 11:57:35;;;;;;;19.50;9.10;;;;;;;7.36;100.00;102525.45;109657;1270;22249;-79
2024/01/28 12:01:00;;;;;;;;;;;;;;;;;;;;;
2024/01/28 12:03:50;;;;;;;15.90;10.60;;;;;;;7.28;100.00;102526.95;109055;1275;21986;-78
2024/01/28 12:06:41;;;;;;;19.20;11.90;;;;;;;7.28;100.00;102524.00;108797;1279;23718;-78
2024/01/28 12:09:17;;;;;;;22.30;10.20;;;;;;;7.30;100.00;102521.42;108625;1279;21997;-78
2024/01/28 12:12:05;;;;;;;18.50;8.60;;;;;;;7.25;100.00;102524.33;108821;1279;21992;-77
2024/01/28 12:15:34;;;;;;;16.10;9.10;;;;;;;7.19;100.00;102526.50;108907;1274;21984;-77
2024/01/28 12:18:17;;;;;;;15.90;8.30;;;;;;;7.18;100.00;102526.33;109054;1274;21983;-77
2024/01/28 12:20:51;;;;;;;16.70;8.70;;;;;;;7.19;100.00;102528.23;109679;1267;23792;-77
2024/01/28 12:23:29;;;;;;;18.60;11.40;;;;;;;7.19;100.00;102524.95;109772;1267;21977;-77
2024/01/28 12:26:11;;;;;;;17.00;10.50;;;;;;;7.15;100.00;102529.06;109786;1267;21989;-78
2024/01/28 12:28:59;;;;;;;19.00;9.50;;;;;;;7.10;100.00;102529.34;110009;1267;22351;-77
2024/01/28 12:31:37;;;;;;;17.50;9.10;;;;;;;7.07;100.00;102530.52;110340;1257;22063;-78
2024/01/28 12:34:18;;;;;;;18.30;12.20;;;;;;;7.08;100.00;102533.13;110838;1254;21948;-77
2024/01/28 12:37:19;;;;;;;19.70;10.40;;;;;;;7.07;100.00;102529.65;110884;1256;21966;-77
2024/01/28 12:40:32;;;;;;;14.90;7.00;;;;;;;7.01;100.00;102527.33;110843;1251;22006;-77
2024/01/28 12:43:54;;;;;;;;;;;;;;;;;;;;;
2024/01/28 12:46:32;;;;;;;13.20;8.90;;;;;;;6.91;100.00;102533.61;110786;1256;21982;-76
2024/01/28 12:49:13;;;;;;;17.30;8.50;;;;;;;6.90;100.00;102537.77;110124;1263;21977;-77
2024/01/28 12:51:50;;;;;;;20.40;10.20;;;;;;;6.87;100.00;102547.94;110016;1268;22379;-77
2024/01/28 12:58:12;;;;;;;16.60;10.70;;;;;;;6.69;100.00;102541.13;110057;1268;22471;-77
2024/01/28 13:01:34;;;;;;;14.90;11.90;;;;;;;6.58;100.00;102530.42;109839;1268;22057;-77
2024/01/28 13:04:31;;;;;;;14.90;9.70;;;;;;;6.52;100.00;102521.52;109572;1268;23060;-77
2024/01/28 13:07:34;;;;;;;13.00;7.90;;;;;;;6.39;100.00;102507.50;109559;1267;23702;-76
2024/01/28 13:10:19;;;;;;;20.50;8.70;;;;;;;6.38;100.00;102509.91;109514;1267;22734;-77
2024/01/28 13:13:02;;;;;;;14.40;6.30;;;;;;;6.47;100.00;102521.10;109269;1273;22048;-75
2024/01/28 13:15:48;;;;;;;14.20;9.60;;;;;;;6.39;100.00;102528.60;109072;1271;23051;-78
2024/01/28 13:18:40;;;;;;;14.20;7.50;;;;;;;6.31;100.00;102531.61;109323;1273;23644;-78
2024/01/28 13:21:13;;;;;;;13.40;8.00;;;;;;;6.30;100.00;102528.48;108831;1278;22176;-78
2024/01/28 13:24:00;;;;;;;15.50;8.30;;;;;;;6.31;100.00;102521.92;108474;1283;22005;-78
2024/01/28 13:26:41;;;;;;;12.60;6.30;;;;;;;6.31;100.00;102519.66;108805;1278;23603;-76
2024/01/28 13:29:46;;;;;;;;;;;;;;;;;;;;;
2024/01/28 13:32:29;;;;;;;;;;;;;;;6.26;100.00;102511.48;109941;1268;22250;-78
2024/01/28 13:35:16;;;;;;;51.40;33.40;;;;;;;6.14;100.00;102508.54;109906;1268;23871;-77
2024/01/28 13:37:54;;;;;;;26.80;19.80;;;;;;;6.13;100.00;102501.25;109111;1273;23519;-78
2024/01/28 13:40:35;;;;;;;27.80;15.20;;;;;;;6.17;100.00;102500.46;109717;1269;22534;-78
2024/01/28 13:43:23;;;;;;;28.60;14.60;;;;;;;6.14;100.00;102498.67;110447;1264;22996;-79
2024/01/28 13:46:51;;;;;;;26.70;17.40;;;;;;;6.07;100.00;102488.02;109323;1273;22457;-78
2024/01/28 13:50:11;;;;;;;17.50;11.20;;;;;;;6.15;100.00;102496.27;109290;1272;22005;-79
2024/01/28 13:52:50;;;;;;;23.80;13.10;;;;;;;6.14;100.00;102498.50;109306;1273;22213;-78
2024/01/28 13:55:38;;;;;;;19.70;10.30;;;;;;;6.10;100.00;102503.11;108921;1274;22228;-77
2024/01/28 13:58:26;;;;;;;19.80;12.90;;;;;;;6.04;100.00;102500.94;109298;1274;22075;-77
2024/01/28 14:01:13;;;;;;;22.60;15.40;;;;;;;6.05;100.00;102505.28;109234;1274;22045;-76
2024/01/28 14:04:33;;;;;;;26.60;16.40;;;;;;;6.08;100.00;102506.37;109688;1268;22272;-77
2024/01/28 14:07:20;;;;;;;20.90;13.20;;;;;;;6.07;100.00;102517.94;108934;1276;22744;-77
2024/01/28 14:10:16;;;;;;;22.20;12.30;;;;;;;6.03;100.00;102525.14;108902;1272;22661;-78
2024/01/28 14:13:13;;;;;;;18.40;9.80;;;;;;;5.99;100.00;102532.85;109226;1269;22039;-76
2024/01/28 14:16:10;;;;;;;27.10;11.80;;;;;;;5.96;100.00;102542.81;109149;1273;22914;-76
2024/01/28 14:19:12;;;;;;;23.50;15.80;;;;;;;5.92;100.00;102548.94;109319;1265;23088;-77
2024/01/28 14:21:59;;;;;;;21.00;17.00;;;;;;;5.88;100.00;102550.45;109300;1273;22053;-78
2024/01/28 14:24:45;;;;;;;31.50;19.40;;;;;;;5.90;100.00;102557.54;109206;1273;23126;-77
2024/01/28 14:27:37;;;;;;;27.50;12.90;;;;;;;5.93;100.00;102559.17;109237;1273;22729;-77
2024/01/28 14:30:10;;;;;;;20.80;11.20;;;;;;;5.96;100.00;102556.63;109427;1272;24398;-78
2024/01/28 14:32:47;;;;;;;18.40;12.60;;;;;;;5.95;100.00;102560.21;109399;1270;23730;-77
2024/01/28 14:35:20;;;;;;;28.10;20.20;;;;;;;5.95;100.00;102561.43;110028;1266;22964;-77
2024/01/28 14:38:08;;;;;;;27.80;21.80;;;;;;;5.96;100.00;102559.40;110103;1265;22731;-76
2024/01/28 14:40:38;;;;;;;26.90;18.60;;;;;;;5.97;100.00;102557.35;110015;1266;22097;-78
2024/01/28 14:43:10;;;;;;;;;;;;;;;5.99;100.00;102560.67;110102;1266;23814;-78
2024/01/28 14:45:46;;;;;;;28.60;18.00;;;;;;;5.91;100.00;102561.73;110837;1257;23750;-77
2024/01/28 14:48:17;;;;;;;27.20;15.50;;;;;;;5.90;100.00;102564.45;110830;1257;22003;-76
2024/01/28 14:50:52;;;;;;;23.20;15.90;;;;;;;5.87;100.00;102569.60;110955;1257;23724;-76
2024/01/28 14:53:24;;;;;;;29.10;17.50;;;;;;;5.86;100.00;102568.71;110687;1257;23622;-78
2024/01/28 14:56:11;;;;;;;28.50;18.50;;;;;;;5.83;100.00;102569.18;110550;1263;23075;-77
2024/01/28 14:58:54;;;;;;;21.90;15.70;;;;;;;5.80;100.00;102574.32;110324;1263;21971;-77
2024/01/28 15:01:41;;;;;;;21.50;13.20;;;;;;;5.82;100.00;102575.21;110457;1255;21976;-78
2024/01/28 15:04:50;;;;;;;30.20;14.40;;;;;;;5.76;100.00;102575.80;110459;1263;22065;-80
2024/01/28 15:07:35;;;;;;;24.00;13.50;;;;;;;5.75;100.00;102573.55;110554;1262;21966;-79
2024/01/28 15:10:44;;;;;;;;;;;;;;;;;;;;;
2024/01/28 15:13:34;;;;;;;29.70;14.90;;;;;;;5.75;100.00;102571.28;110954;1257;23787;-79
2024/01/28 15:16:24;;;;;;;21.00;13.80;;;;;;;5.77;100.00;102564.92;110741;1257;21973;-77
2024/01/28 15:19:33;;;;;;;;;;;;;;;;;;;;;
2024/01/28 15:22:27;;;;;;;23.70;17.70;;;;;;;5.70;100.00;102549.09;110122;1265;22013;-80
2024/01/28 15:25:24;;;;;;;29.90;19.80;;;;;;;5.68;100.00;102542.31;109117;1274;22001;-77
2024/01/28 15:28:08;;;;;;;25.60;17.50;;;;;;;5.66;100.00;102540.55;109223;1274;22966;-76